createdAt,value
2023-08-14T00:00:55.928Z,20.60
2023-08-14T00:03:23.479Z,20.50
2023-08-14T00:05:50.499Z,20.50
2023-08-14T00:08:17.229Z,20.50
2023-08-14T00:10:44.021Z,20.40
2023-08-14T00:13:10.645Z,20.40
2023-08-14T00:15:37.703Z,20.30
2023-08-14T00:18:05.596Z,20.30
2023-08-14T00:20:32.477Z,20.30
2023-08-14T00:22:59.141Z,20.20
2023-08-14T00:25:25.817Z,20.10
2023-08-14T00:27:52.481Z,20.10
2023-08-14T00:30:19.214Z,20.10
2023-08-14T00:32:45.945Z,20.10
2023-08-14T00:35:12.816Z,20.10
2023-08-14T00:37:47.467Z,20.00
2023-08-14T00:40:15.553Z,20.00
2023-08-14T00:42:43.630Z,20.00
2023-08-14T00:45:11.058Z,20.00
2023-08-14T00:47:38.656Z,19.90
2023-08-14T00:50:07.650Z,19.90
2023-08-14T00:52:36.674Z,19.80
2023-08-14T00:55:08.733Z,19.80
2023-08-14T00:57:36.833Z,19.70
2023-08-14T01:00:06.322Z,19.70
2023-08-14T01:02:35.133Z,19.70
2023-08-14T01:05:02.049Z,19.70
2023-08-14T01:07:30.869Z,19.60
2023-08-14T01:09:58.321Z,19.60
2023-08-14T01:12:31.112Z,19.60
2023-08-14T01:15:04.544Z,19.50
2023-08-14T01:17:35.004Z,19.50
2023-08-14T01:20:03.744Z,19.40
2023-08-14T01:22:58.074Z,19.40
2023-08-14T01:25:32.948Z,19.30
2023-08-14T01:28:01.288Z,19.30
2023-08-14T01:30:28.278Z,19.20
2023-08-14T01:32:55.530Z,19.20
2023-08-14T01:35:25.077Z,19.20
2023-08-14T01:38:14.478Z,19.20
2023-08-14T01:40:59.749Z,19.20
2023-08-14T01:43:40.848Z,19.20
2023-08-14T01:46:11.052Z,19.20
2023-08-14T01:48:38.646Z,19.10
2023-08-14T01:51:06.364Z,19.10
2023-08-14T01:53:38.671Z,19.10
2023-08-14T01:56:05.430Z,19.10
2023-08-14T01:58:32.121Z,19.00
2023-08-14T02:00:58.833Z,18.90
2023-08-14T02:03:26.548Z,18.90
2023-08-14T02:05:53.369Z,18.90
2023-08-14T02:08:20.016Z,18.90
2023-08-14T02:10:47.616Z,18.80
2023-08-14T02:13:14.720Z,18.80
2023-08-14T02:15:41.458Z,18.80
2023-08-14T02:18:08.123Z,18.80
2023-08-14T02:20:34.936Z,18.80
2023-08-14T02:23:01.601Z,18.80
2023-08-14T02:25:28.306Z,18.80
2023-08-14T02:27:54.991Z,18.70
2023-08-14T02:30:21.617Z,18.60
2023-08-14T02:32:48.296Z,18.60
2023-08-14T02:35:15.014Z,18.60
2023-08-14T02:37:41.662Z,18.70
2023-08-14T02:40:09.077Z,18.70
2023-08-14T02:42:35.733Z,18.60
2023-08-14T02:45:02.638Z,18.60
2023-08-14T02:47:29.329Z,18.60
2023-08-14T02:49:55.967Z,18.50
2023-08-14T02:52:22.610Z,18.50
2023-08-14T02:54:49.278Z,18.40
2023-08-14T02:57:15.963Z,18.40
2023-08-14T02:59:42.655Z,18.40
2023-08-14T03:02:09.460Z,18.40
2023-08-14T03:04:36.250Z,18.40
2023-08-14T03:07:02.998Z,18.40
2023-08-14T03:09:29.660Z,18.40
2023-08-14T03:11:56.294Z,18.40
2023-08-14T03:14:22.971Z,18.40
2023-08-14T03:16:49.676Z,18.40
2023-08-14T03:19:16.331Z,18.30
2023-08-14T03:21:43.086Z,18.30
2023-08-14T03:24:09.767Z,18.30
2023-08-14T03:26:36.626Z,18.30
2023-08-14T03:29:03.773Z,18.30
2023-08-14T03:31:33.064Z,18.40
2023-08-14T03:34:01.011Z,18.40
2023-08-14T03:36:27.710Z,18.40
2023-08-14T03:38:54.420Z,18.40
2023-08-14T03:41:21.100Z,18.30
2023-08-14T03:43:48.414Z,18.30
2023-08-14T03:46:15.111Z,18.20
2023-08-14T03:48:41.753Z,18.20
2023-08-14T03:51:08.404Z,18.20
2023-08-14T03:53:35.203Z,18.20
2023-08-14T03:56:02.253Z,18.10
2023-08-14T03:58:28.963Z,18.10
2023-08-14T04:00:55.603Z,18.10
2023-08-14T04:03:23.133Z,18.10
2023-08-14T04:05:56.375Z,18.20
2023-08-14T04:08:23.018Z,18.20
2023-08-14T04:10:58.294Z,18.20
2023-08-14T04:13:26.353Z,18.20
2023-08-14T04:16:00.696Z,18.20
2023-08-14T04:18:30.873Z,18.20
2023-08-14T04:20:58.213Z,18.20
2023-08-14T04:23:26.141Z,18.20
2023-08-14T04:25:53.738Z,18.20
2023-08-14T04:28:20.369Z,18.20
2023-08-14T04:30:47.041Z,18.20
2023-08-14T04:33:13.719Z,18.20
2023-08-14T04:35:40.605Z,18.30
2023-08-14T04:38:07.327Z,18.30
2023-08-14T04:40:34.009Z,18.40
2023-08-14T04:43:00.712Z,18.50
2023-08-14T04:45:27.385Z,18.50
2023-08-14T04:47:56.870Z,18.60
2023-08-14T04:50:24.114Z,18.70
2023-08-14T04:52:50.748Z,18.80
2023-08-14T04:55:17.592Z,18.80
2023-08-14T04:57:44.371Z,18.90
2023-08-14T05:00:11.721Z,19.00
2023-08-14T05:02:38.422Z,19.10
2023-08-14T05:05:05.330Z,19.20
2023-08-14T05:07:32.003Z,19.30
2023-08-14T05:09:58.860Z,19.40
2023-08-14T05:12:25.522Z,19.50
2023-08-14T05:14:55.385Z,19.60
2023-08-14T05:17:22.130Z,19.60
2023-08-14T05:19:48.886Z,19.70
2023-08-14T05:22:15.762Z,19.70
2023-08-14T05:24:42.715Z,19.80
2023-08-14T05:27:09.346Z,19.80
2023-08-14T05:29:35.973Z,19.80
2023-08-14T05:32:02.609Z,19.90
2023-08-14T05:34:29.264Z,19.90
2023-08-14T05:36:55.883Z,20.00
2023-08-14T05:39:22.523Z,20.10
2023-08-14T05:41:50.613Z,20.20
2023-08-14T05:44:18.486Z,20.20
2023-08-14T05:46:48.138Z,20.20
2023-08-14T05:49:16.274Z,20.20
2023-08-14T05:51:43.034Z,20.20
2023-08-14T05:54:10.076Z,20.20
2023-08-14T05:56:36.758Z,20.30
2023-08-14T05:59:03.588Z,20.30
2023-08-14T06:01:30.394Z,20.40
2023-08-14T06:03:57.295Z,20.40
2023-08-14T06:06:24.089Z,20.40
2023-08-14T06:08:50.895Z,20.40
2023-08-14T06:11:17.650Z,20.40
2023-08-14T06:13:44.465Z,20.50
2023-08-14T06:16:11.995Z,20.50
2023-08-14T06:18:38.655Z,20.60
2023-08-14T06:21:05.383Z,20.60
2023-08-14T06:23:32.089Z,20.70
2023-08-14T06:25:59.311Z,20.70
2023-08-14T06:28:25.920Z,20.80
2023-08-14T06:30:52.671Z,20.80
2023-08-14T06:33:19.319Z,20.90
2023-08-14T06:35:45.998Z,21.00
2023-08-14T06:38:13.288Z,21.00
2023-08-14T06:40:40.212Z,21.20
2023-08-14T06:43:07.673Z,21.20
2023-08-14T06:45:34.732Z,21.30
2023-08-14T06:48:01.523Z,21.40
2023-08-14T06:50:28.272Z,21.60
2023-08-14T06:52:55.019Z,21.70
2023-08-14T06:55:21.984Z,21.90
2023-08-14T06:57:48.788Z,22.00
2023-08-14T07:00:16.107Z,22.10
2023-08-14T07:02:44.476Z,22.20
2023-08-14T07:05:12.376Z,22.30
2023-08-14T07:07:39.983Z,22.40
2023-08-14T07:10:07.599Z,22.50
2023-08-14T07:12:34.452Z,22.40
2023-08-14T07:15:05.907Z,22.50
2023-08-14T07:17:33.469Z,22.40
2023-08-14T07:20:00.614Z,22.50
2023-08-14T07:22:27.433Z,22.60
2023-08-14T07:24:54.105Z,22.50
2023-08-14T07:27:23.089Z,22.50
2023-08-14T07:29:51.032Z,22.50
2023-08-14T07:32:18.115Z,22.50
2023-08-14T07:34:44.979Z,22.50
2023-08-14T07:37:11.629Z,22.40
2023-08-14T07:39:38.243Z,22.40
2023-08-14T07:42:04.929Z,22.40
2023-08-14T07:44:31.583Z,22.50
2023-08-14T07:46:58.254Z,22.50
2023-08-14T07:49:24.955Z,22.60
2023-08-14T07:51:51.612Z,22.60
2023-08-14T07:54:18.332Z,22.70
2023-08-14T07:56:47.006Z,22.70
2023-08-14T07:59:14.885Z,22.80
2023-08-14T08:01:42.821Z,22.80
2023-08-14T08:04:09.568Z,22.90
2023-08-14T08:06:44.337Z,23.00
2023-08-14T08:09:12.504Z,23.00
2023-08-14T08:11:39.164Z,23.10
2023-08-14T08:14:08.795Z,23.10
2023-08-14T08:16:37.434Z,23.20
2023-08-14T08:19:07.380Z,23.20
2023-08-14T08:21:34.438Z,23.30
2023-08-14T08:24:01.330Z,23.40
2023-08-14T08:26:28.053Z,23.50
2023-08-14T08:28:54.705Z,23.60
2023-08-14T08:31:21.378Z,23.70
2023-08-14T08:33:48.087Z,23.80
2023-08-14T08:36:16.815Z,23.90
2023-08-14T08:38:43.590Z,24.00
2023-08-14T08:41:14.276Z,24.00
2023-08-14T08:43:42.218Z,24.10
2023-08-14T08:46:13.837Z,24.30
2023-08-14T08:48:43.757Z,24.40
2023-08-14T08:51:10.890Z,24.60
2023-08-14T08:53:38.406Z,24.70
2023-08-14T08:56:05.612Z,24.90
2023-08-14T08:58:32.575Z,25.00
2023-08-14T09:01:00.641Z,25.20
2023-08-14T09:03:27.498Z,25.50
2023-08-14T09:05:54.612Z,25.70
2023-08-14T09:08:21.333Z,25.90
2023-08-14T09:10:48.033Z,26.20
2023-08-14T09:13:15.717Z,26.50
2023-08-14T09:15:44.139Z,26.70
2023-08-14T09:18:11.998Z,26.90
2023-08-14T09:20:40.447Z,27.20
2023-08-14T09:23:13.541Z,27.50
2023-08-14T09:25:46.054Z,27.70
2023-08-14T09:28:13.497Z,27.90
2023-08-14T09:30:41.872Z,28.20
2023-08-14T09:33:10.373Z,28.50
2023-08-14T09:35:37.870Z,28.70
2023-08-14T09:38:05.063Z,28.90
2023-08-14T09:40:32.635Z,29.10
2023-08-14T09:42:59.816Z,29.30
2023-08-14T09:45:29.572Z,29.50
2023-08-14T09:48:05.448Z,29.70
2023-08-14T09:50:32.809Z,29.90
2023-08-14T09:53:01.683Z,30.00
2023-08-14T09:55:29.128Z,30.10
2023-08-14T09:57:59.351Z,30.10
2023-08-14T10:00:30.543Z,30.10
2023-08-14T10:03:03.097Z,30.10
2023-08-14T10:05:31.289Z,30.10
2023-08-14T10:07:59.615Z,30.00
2023-08-14T10:10:29.908Z,29.90
2023-08-14T10:13:05.946Z,29.90
2023-08-14T10:15:38.620Z,29.90
2023-08-14T10:18:13.716Z,29.90
2023-08-14T10:20:43.034Z,29.80
2023-08-14T10:23:10.142Z,29.70
2023-08-14T10:25:40.127Z,29.50
2023-08-14T10:28:10.282Z,29.50
2023-08-14T10:30:37.529Z,29.60
2023-08-14T10:33:05.460Z,29.70
2023-08-14T10:35:45.261Z,29.60
2023-08-14T10:38:12.146Z,29.70
2023-08-14T10:40:57.775Z,29.80
2023-08-14T10:43:29.298Z,30.10
2023-08-14T10:45:56.095Z,30.20
2023-08-14T10:48:23.131Z,30.50
2023-08-14T10:50:57.897Z,30.70
2023-08-14T10:53:24.637Z,31.00
2023-08-14T10:55:51.362Z,31.30
2023-08-14T10:58:32.814Z,31.70
2023-08-14T11:01:01.146Z,32.00
2023-08-14T11:03:28.509Z,32.30
2023-08-14T11:05:55.314Z,32.60
2023-08-14T11:08:22.375Z,32.90
2023-08-14T11:10:50.833Z,33.30
2023-08-14T11:13:18.029Z,34.00
2023-08-14T11:15:45.061Z,35.00
2023-08-14T11:18:12.058Z,36.10
2023-08-14T11:20:40.422Z,37.10
2023-08-14T11:23:07.665Z,38.00
2023-08-14T11:25:35.040Z,39.00
2023-08-14T11:28:01.930Z,39.50
2023-08-14T11:30:33.246Z,40.10
2023-08-14T11:32:59.917Z,40.60
2023-08-14T11:35:27.460Z,40.40
2023-08-14T11:37:54.394Z,40.00
2023-08-14T11:40:21.252Z,39.60
2023-08-14T11:42:47.990Z,38.90
2023-08-14T11:45:14.629Z,39.10
2023-08-14T11:47:48.437Z,39.50
2023-08-14T11:50:17.107Z,39.60
2023-08-14T11:52:44.589Z,39.40
2023-08-14T11:55:12.063Z,39.30
2023-08-14T11:57:39.602Z,39.40
2023-08-14T12:00:16.462Z,40.00
2023-08-14T12:02:44.857Z,40.80
2023-08-14T12:05:11.734Z,41.50
2023-08-14T12:07:42.886Z,42.00
2023-08-14T12:10:10.088Z,42.70
2023-08-14T12:12:44.828Z,42.60
2023-08-14T12:15:25.120Z,42.90
2023-08-14T12:17:53.218Z,43.20
2023-08-14T12:20:26.293Z,43.60
2023-08-14T12:23:00.005Z,44.00
2023-08-14T12:25:29.722Z,44.30
2023-08-14T12:27:56.867Z,44.60
2023-08-14T12:30:23.539Z,44.80
2023-08-14T12:32:50.271Z,45.10
2023-08-14T12:35:17.195Z,45.40
2023-08-14T12:37:43.855Z,45.80
2023-08-14T12:40:11.662Z,46.00
2023-08-14T12:42:38.744Z,46.00
2023-08-14T12:45:06.521Z,46.30
2023-08-14T12:47:33.465Z,46.40
2023-08-14T12:50:00.235Z,46.30
2023-08-14T12:52:28.807Z,46.30
2023-08-14T12:55:05.343Z,46.40
2023-08-14T12:57:33.082Z,46.10
2023-08-14T12:59:59.763Z,46.40
2023-08-14T13:04:57.742Z,47.00
2023-08-14T13:07:28.339Z,47.00
2023-08-14T13:09:54.994Z,46.60
2023-08-14T13:12:21.708Z,45.90
2023-08-14T13:14:48.370Z,46.10
2023-08-14T13:17:14.987Z,46.60
2023-08-14T13:19:41.666Z,46.80
2023-08-14T13:22:08.307Z,47.50
2023-08-14T13:24:35.314Z,47.90
2023-08-14T13:27:16.430Z,48.50
2023-08-14T13:29:43.207Z,48.80
2023-08-14T13:32:10.037Z,48.90
2023-08-14T13:34:36.817Z,48.30
2023-08-14T13:37:04.048Z,48.20
2023-08-14T13:39:30.853Z,48.40
2023-08-14T13:41:57.557Z,48.10
2023-08-14T13:44:24.415Z,47.10
2023-08-14T13:46:51.146Z,45.80
2023-08-14T13:49:17.920Z,44.60
2023-08-14T13:51:46.075Z,44.90
2023-08-14T13:54:13.086Z,45.80
2023-08-14T13:56:39.905Z,46.90
2023-08-14T13:59:06.759Z,47.80
2023-08-14T14:01:33.594Z,48.20
2023-08-14T14:04:00.524Z,48.10
2023-08-14T14:06:27.286Z,47.80
2023-08-14T14:08:54.006Z,47.30
2023-08-14T14:11:20.846Z,46.90
2023-08-14T14:13:47.550Z,46.60
2023-08-14T14:16:14.247Z,46.60
2023-08-14T14:18:40.919Z,46.70
2023-08-14T14:21:07.672Z,47.00
2023-08-14T14:23:34.411Z,47.00
2023-08-14T14:26:01.156Z,47.30
2023-08-14T14:28:30.243Z,47.80
2023-08-14T14:30:57.497Z,48.10
2023-08-14T14:33:24.297Z,48.50
2023-08-14T14:35:51.107Z,48.90
2023-08-14T14:38:17.800Z,48.90
2023-08-14T14:40:44.454Z,49.10
2023-08-14T14:43:11.399Z,49.20
2023-08-14T14:45:38.301Z,49.30
2023-08-14T14:48:05.419Z,49.40
2023-08-14T14:50:32.336Z,49.50
2023-08-14T14:52:59.307Z,49.50
2023-08-14T14:55:29.021Z,49.30
2023-08-14T14:57:55.895Z,49.50
2023-08-14T15:00:23.425Z,49.40
2023-08-14T15:02:51.489Z,49.10
2023-08-14T15:07:48.857Z,48.40
2023-08-14T15:10:15.498Z,47.80
2023-08-14T15:12:42.182Z,46.80
2023-08-14T15:15:09.237Z,45.90
2023-08-14T15:17:39.536Z,44.70
2023-08-14T15:20:11.583Z,43.80
2023-08-14T15:22:38.553Z,42.60
2023-08-14T15:25:06.571Z,41.70
2023-08-14T15:27:33.265Z,40.90
2023-08-14T15:30:00.086Z,40.20
2023-08-14T15:32:26.858Z,39.60
2023-08-14T15:34:53.702Z,39.10
2023-08-14T15:37:20.830Z,38.70
2023-08-14T15:39:48.735Z,38.80
2023-08-14T15:42:16.957Z,39.30
2023-08-14T15:44:43.662Z,40.10
2023-08-14T15:47:10.340Z,40.90
2023-08-14T15:49:37.109Z,41.50
2023-08-14T15:52:03.858Z,41.90
2023-08-14T15:54:43.035Z,42.10
2023-08-14T15:57:17.418Z,42.10
2023-08-14T15:59:44.345Z,41.60
2023-08-14T16:02:11.109Z,41.00
2023-08-14T16:04:37.885Z,40.10
2023-08-14T16:07:04.652Z,39.30
2023-08-14T16:09:31.518Z,38.70
2023-08-14T16:11:58.508Z,38.00
2023-08-14T16:14:25.783Z,37.50
2023-08-14T16:16:52.643Z,37.20
2023-08-14T16:19:21.770Z,37.20
2023-08-14T16:21:48.573Z,36.90
2023-08-14T16:24:15.342Z,36.30
2023-08-14T16:26:42.058Z,35.70
2023-08-14T16:29:08.725Z,35.10
2023-08-14T16:31:35.662Z,34.60
2023-08-14T16:34:02.381Z,34.10
2023-08-14T16:36:29.132Z,33.60
2023-08-14T16:38:55.801Z,33.20
2023-08-14T16:41:22.748Z,32.80
2023-08-14T16:43:49.391Z,32.40
2023-08-14T16:46:16.148Z,32.20
2023-08-14T16:48:43.055Z,31.90
2023-08-14T16:51:09.868Z,31.70
2023-08-14T16:53:36.579Z,31.50
2023-08-14T16:56:03.315Z,31.30
2023-08-14T16:58:30.033Z,31.20
2023-08-14T17:00:56.809Z,31.00
2023-08-14T17:03:23.534Z,30.80
2023-08-14T17:05:58.994Z,30.70
2023-08-14T17:08:25.632Z,30.60
2023-08-14T17:10:52.268Z,30.40
2023-08-14T17:13:18.958Z,30.30
2023-08-14T17:15:45.801Z,30.20
2023-08-14T17:18:12.648Z,30.10
2023-08-14T17:20:46.412Z,30.00
2023-08-14T17:23:13.447Z,29.90
2023-08-14T17:25:41.391Z,29.80
2023-08-14T17:28:08.321Z,29.70
2023-08-14T17:30:38.789Z,29.60
2023-08-14T17:33:05.757Z,29.50
2023-08-14T17:35:32.555Z,29.40
2023-08-14T17:37:59.287Z,29.40
2023-08-14T17:40:25.958Z,29.30
2023-08-14T17:42:52.621Z,29.30
2023-08-14T17:45:19.291Z,29.10
2023-08-14T17:47:46.147Z,29.00
2023-08-14T17:50:12.919Z,28.90
2023-08-14T17:52:39.649Z,28.90
2023-08-14T17:55:06.774Z,28.70
2023-08-14T17:57:34.682Z,28.60
2023-08-14T18:00:01.401Z,28.50
2023-08-14T18:02:28.177Z,28.40
2023-08-14T18:04:54.976Z,28.40
2023-08-14T18:07:21.920Z,28.30
2023-08-14T18:09:48.834Z,28.20
2023-08-14T18:12:15.526Z,28.10
2023-08-14T18:14:42.215Z,28.00
2023-08-14T18:17:09.010Z,27.90
2023-08-14T18:19:35.713Z,27.70
2023-08-14T18:22:02.429Z,27.60
2023-08-14T18:24:29.104Z,27.50
2023-08-14T18:26:56.135Z,27.40
2023-08-14T18:29:22.812Z,27.30
2023-08-14T18:31:49.612Z,27.20
2023-08-14T18:34:16.331Z,27.00
2023-08-14T18:36:43.057Z,26.90
2023-08-14T18:39:09.801Z,26.80
2023-08-14T18:41:38.028Z,26.60
2023-08-14T18:44:05.661Z,26.60
2023-08-14T18:46:32.607Z,26.40
2023-08-14T18:48:59.559Z,26.30
2023-08-14T18:51:26.233Z,26.20
2023-08-14T18:53:53.106Z,26.10
2023-08-14T18:56:19.812Z,26.10
2023-08-14T18:58:48.439Z,26.00
2023-08-14T19:01:15.287Z,26.00
2023-08-14T19:03:42.375Z,25.90
2023-08-14T19:06:09.177Z,25.80
2023-08-14T19:08:35.888Z,25.70
2023-08-14T19:11:02.582Z,25.60
2023-08-14T19:13:29.670Z,25.60
2023-08-14T19:15:56.409Z,25.50
2023-08-14T19:18:23.180Z,25.40
2023-08-14T19:20:50.275Z,25.30
2023-08-14T19:23:17.002Z,25.20
2023-08-14T19:25:43.732Z,25.10
2023-08-14T19:28:20.951Z,25.10
2023-08-14T19:30:48.912Z,25.10
2023-08-14T19:33:15.867Z,25.10
2023-08-14T19:35:43.910Z,25.00
2023-08-14T19:38:10.931Z,25.00
2023-08-14T19:40:37.960Z,24.90
2023-08-14T19:43:05.065Z,24.80
2023-08-14T19:45:31.774Z,24.80
2023-08-14T19:47:58.538Z,24.70
2023-08-14T19:50:25.310Z,24.70
2023-08-14T19:52:52.035Z,24.70
2023-08-14T19:55:18.779Z,24.70
2023-08-14T19:57:45.827Z,24.70
2023-08-14T20:00:13.188Z,24.60
2023-08-14T20:02:39.923Z,24.50
2023-08-14T20:05:06.877Z,24.50
2023-08-14T20:07:33.569Z,24.40
2023-08-14T20:10:01.336Z,24.30
2023-08-14T20:12:28.100Z,24.20
2023-08-14T20:14:55.003Z,24.20
2023-08-14T20:17:21.966Z,24.10
2023-08-14T20:19:49.242Z,24.00
2023-08-14T20:22:15.961Z,23.90
2023-08-14T20:24:42.785Z,24.00
2023-08-14T20:27:09.568Z,24.00
2023-08-14T20:29:36.281Z,23.90
2023-08-14T20:32:03.120Z,23.90
2023-08-14T20:34:30.244Z,23.90
2023-08-14T20:36:56.933Z,23.80
2023-08-14T20:39:24.731Z,23.80
2023-08-14T20:41:51.457Z,23.80
2023-08-14T20:44:18.242Z,23.80
2023-08-14T20:46:44.974Z,23.70
2023-08-14T20:49:12.022Z,23.70
2023-08-14T20:51:38.872Z,23.60
2023-08-14T20:54:06.078Z,23.50
2023-08-14T20:56:32.932Z,23.50
2023-08-14T20:58:59.565Z,23.40
2023-08-14T21:01:26.281Z,23.40
2023-08-14T21:03:53.082Z,23.30
2023-08-14T21:06:19.898Z,23.30
2023-08-14T21:08:46.630Z,23.30
2023-08-14T21:11:16.148Z,23.20
2023-08-14T21:13:44.284Z,23.10
2023-08-14T21:16:11.096Z,23.10
2023-08-14T21:18:38.395Z,23.00
2023-08-14T21:21:05.557Z,22.90
2023-08-14T21:23:32.269Z,22.90
2023-08-14T21:25:59.012Z,22.90
2023-08-14T21:28:25.816Z,22.90
2023-08-14T21:30:59.909Z,22.90
2023-08-14T21:33:29.443Z,22.90
2023-08-14T21:35:56.929Z,22.90
2023-08-14T21:38:23.764Z,22.90
2023-08-14T21:40:50.709Z,22.80
2023-08-14T21:43:18.307Z,22.80
2023-08-14T21:45:48.261Z,22.70
2023-08-14T21:48:15.047Z,22.70
2023-08-14T21:50:41.896Z,22.60
2023-08-14T21:53:08.846Z,22.60
2023-08-14T21:55:35.511Z,22.60
2023-08-14T21:58:02.216Z,22.50
2023-08-14T22:00:29.092Z,22.50
2023-08-14T22:02:55.911Z,22.50
2023-08-14T22:05:22.712Z,22.40
2023-08-14T22:07:49.463Z,22.30
2023-08-14T22:10:16.202Z,22.30
2023-08-14T22:12:45.734Z,22.20
2023-08-14T22:15:12.781Z,22.20
2023-08-14T22:17:39.552Z,22.10
2023-08-14T22:20:07.621Z,22.20
2023-08-14T22:22:34.257Z,22.20
2023-08-14T22:25:00.950Z,22.10
2023-08-14T22:27:28.125Z,22.10
2023-08-14T22:29:54.849Z,22.10
2023-08-14T22:32:21.551Z,22.00
2023-08-14T22:34:48.313Z,22.00
2023-08-14T22:37:15.020Z,21.90
2023-08-14T22:39:41.655Z,21.90
2023-08-14T22:42:08.293Z,21.90
2023-08-14T22:44:34.951Z,21.90
2023-08-14T22:47:01.723Z,21.90
2023-08-14T22:49:28.596Z,21.90
2023-08-14T22:51:55.333Z,21.80
2023-08-14T22:54:22.029Z,21.80
2023-08-14T22:56:48.871Z,21.80
2023-08-14T22:59:15.586Z,21.80
2023-08-14T23:01:42.248Z,21.70
2023-08-14T23:04:08.971Z,21.70
2023-08-14T23:06:35.738Z,21.70
2023-08-14T23:09:02.437Z,21.70
2023-08-14T23:11:31.426Z,21.80
2023-08-14T23:13:58.127Z,21.80
2023-08-14T23:16:24.866Z,21.70
2023-08-14T23:18:51.535Z,21.70
2023-08-14T23:21:18.261Z,21.60
2023-08-14T23:23:44.882Z,21.60
2023-08-14T23:26:11.616Z,21.60
2023-08-14T23:28:38.383Z,21.50
2023-08-14T23:31:05.164Z,21.50
2023-08-14T23:33:31.981Z,21.50
2023-08-14T23:35:58.797Z,21.40
2023-08-14T23:38:25.596Z,21.50
2023-08-14T23:40:52.347Z,21.40
2023-08-14T23:43:19.048Z,21.40
2023-08-14T23:45:46.444Z,21.30
2023-08-14T23:48:13.351Z,21.30
2023-08-14T23:50:40.183Z,21.30
2023-08-14T23:53:06.868Z,21.30
2023-08-14T23:55:33.582Z,21.30
2023-08-14T23:58:00.359Z,21.20
